Rogers Park, Illinois
Current Conditions -  °F | °C
As of 10:51 PM on Monday 20 Oct 2014 (Local Time) from KORD Reporting Station
Broken Clouds Broken Clouds  
Wind Chill: 52°   Ceiling: 5500
Heat Index: 52°   Visibility: 10mi
Dew Point: 41°   Wind: 9mph
Humidity: 66%   Direction: 360°N
Pressure: 30"   Gusts: NA
Location:  41.991°N, 87.6654°W
Report Text: KORD 210351Z 36008KT 10SM BKN055 11/05 A3000 RMK AO2 SLP158 T01110050 $
Loading
Personal Weather Stations






























Interactive Weather Map
Tropical Storm Tracking
New forecast layout! Learn more

10-Day Weather Forecast

Advertisements
Track Severe Weather on mobile